createdAt,value
2023-04-27T00:00:20.777Z,99037.41
2023-04-27T00:02:48.366Z,99035.78
2023-04-27T00:05:16.551Z,99040.75
2023-04-27T00:07:44.228Z,99036.06
2023-04-27T00:10:12.279Z,99042.13
2023-04-27T00:12:42.528Z,99045.63
2023-04-27T00:15:11.023Z,99044.31
2023-04-27T00:17:38.598Z,99044.50
2023-04-27T00:20:08.970Z,99048.91
2023-04-27T00:22:36.626Z,99048.16
2023-04-27T00:25:04.320Z,99050.34
2023-04-27T00:27:31.780Z,99057.81
2023-04-27T00:29:59.292Z,99061.72
2023-04-27T00:32:27.802Z,99056.59
2023-04-27T00:34:55.311Z,99059.03
2023-04-27T00:37:22.841Z,99063.81
2023-04-27T00:39:50.465Z,99074.56
2023-04-27T00:42:19.769Z,99075.94
2023-04-27T00:44:51.848Z,99082.03
2023-04-27T00:47:19.806Z,99081.78
2023-04-27T00:49:47.402Z,99088.53
2023-04-27T00:52:15.231Z,99077.47
2023-04-27T00:54:43.593Z,99087.03
2023-04-27T00:57:11.195Z,99087.53
2023-04-27T00:59:38.670Z,99093.44
2023-04-27T01:02:06.273Z,99089.75
2023-04-27T01:04:34.025Z,99096.88
2023-04-27T01:07:04.210Z,99100.47
2023-04-27T01:09:32.459Z,99110.44
2023-04-27T01:12:00.005Z,99105.91
2023-04-27T01:14:28.099Z,99108.44
2023-04-27T01:16:55.583Z,99117.31
2023-04-27T01:19:23.509Z,99122.84
2023-04-27T01:21:51.275Z,99120.72
2023-04-27T01:24:18.768Z,99121.84
2023-04-27T01:26:46.370Z,99130.19
2023-04-27T01:29:14.098Z,99128.16
2023-04-27T01:31:42.301Z,99130.19
2023-04-27T01:34:09.764Z,99136.34
2023-04-27T01:36:37.290Z,99140.16
2023-04-27T01:39:09.157Z,99138.94
2023-04-27T01:41:38.017Z,99137.44
2023-04-27T01:44:06.734Z,99149.59
2023-04-27T01:46:34.298Z,99142.53
2023-04-27T01:49:01.929Z,99138.84
2023-04-27T01:51:29.397Z,99144.09
2023-04-27T01:53:56.970Z,99143.16
2023-04-27T01:56:24.621Z,99141.44
2023-04-27T01:58:54.057Z,99142.47
2023-04-27T02:01:22.099Z,99138.25
2023-04-27T02:03:49.675Z,99137.56
2023-04-27T02:06:17.333Z,99150.59
2023-04-27T02:08:46.695Z,99150.22
2023-04-27T02:11:14.162Z,99146.91
2023-04-27T02:13:41.644Z,99153.41
2023-04-27T02:16:09.327Z,99151.22
2023-04-27T02:18:36.850Z,99159.34
2023-04-27T02:21:10.221Z,99155.97
2023-04-27T02:23:37.879Z,99148.97
2023-04-27T02:26:06.096Z,99160.75
2023-04-27T02:28:33.671Z,99160.31
2023-04-27T02:31:02.110Z,99161.38
2023-04-27T02:33:29.632Z,99163.38
2023-04-27T02:35:58.101Z,99164.97
2023-04-27T02:38:25.546Z,99168.00
2023-04-27T02:40:56.335Z,99163.53
2023-04-27T02:43:23.896Z,99174.09
2023-04-27T02:45:51.347Z,99170.97
2023-04-27T02:48:18.972Z,99177.06
2023-04-27T02:50:46.779Z,99179.78
2023-04-27T02:53:14.353Z,99181.50
2023-04-27T02:55:49.849Z,99190.06
2023-04-27T02:58:18.086Z,99186.91
2023-04-27T03:00:45.898Z,99186.81
2023-04-27T03:03:13.905Z,99192.25
2023-04-27T03:05:41.553Z,99189.88
2023-04-27T03:08:09.079Z,99182.09
2023-04-27T03:10:36.731Z,99195.22
2023-04-27T03:13:04.219Z,99189.00
2023-04-27T03:15:32.172Z,99199.13
2023-04-27T03:17:59.754Z,99192.31
2023-04-27T03:20:27.305Z,99203.78
2023-04-27T03:22:54.902Z,99198.97
2023-04-27T03:25:22.511Z,99200.69
2023-04-27T03:27:50.900Z,99206.13
2023-04-27T03:30:18.674Z,99197.66
2023-04-27T03:32:47.713Z,99202.72
2023-04-27T03:35:15.981Z,99212.72
2023-04-27T03:37:46.114Z,99212.88
2023-04-27T03:40:14.825Z,99218.91
2023-04-27T03:42:42.339Z,99217.44
2023-04-27T03:45:12.260Z,99219.25
2023-04-27T03:47:40.037Z,99219.19
2023-04-27T03:50:07.909Z,99222.72
2023-04-27T03:52:35.430Z,99234.59
2023-04-27T03:55:05.729Z,99230.91
2023-04-27T03:57:33.679Z,99234.31
2023-04-27T04:00:01.322Z,99249.75
2023-04-27T04:02:29.598Z,99243.63
2023-04-27T04:04:58.366Z,99247.06
2023-04-27T04:07:25.975Z,99249.88
2023-04-27T04:09:53.453Z,99250.84
2023-04-27T04:12:21.128Z,99242.38
2023-04-27T04:14:49.174Z,99248.41
2023-04-27T04:17:17.176Z,99252.31
2023-04-27T04:19:44.948Z,99259.00
2023-04-27T04:22:13.097Z,99254.44
2023-04-27T04:24:41.197Z,99257.81
2023-04-27T04:27:11.670Z,99262.97
2023-04-27T04:29:40.727Z,99268.22
2023-04-27T04:32:09.546Z,99267.56
2023-04-27T04:34:38.182Z,99268.34
2023-04-27T04:37:05.856Z,99278.06
2023-04-27T04:39:34.137Z,99274.50
2023-04-27T04:42:04.137Z,99284.44
2023-04-27T04:44:33.320Z,99277.28
2023-04-27T04:47:01.312Z,99283.31
2023-04-27T04:49:28.915Z,99284.13
2023-04-27T04:51:56.426Z,99284.41
2023-04-27T04:54:23.989Z,99295.19
2023-04-27T04:56:51.493Z,99294.22
2023-04-27T04:59:19.181Z,99301.69
2023-04-27T05:01:46.713Z,99303.44
2023-04-27T05:04:14.458Z,99296.88
2023-04-27T05:06:43.305Z,99309.69
2023-04-27T05:09:10.861Z,99311.06
2023-04-27T05:11:38.414Z,99308.72
2023-04-27T05:14:05.972Z,99309.41
2023-04-27T05:16:33.551Z,99316.75
2023-04-27T05:19:01.222Z,99320.38
2023-04-27T05:21:28.705Z,99321.53
2023-04-27T05:23:56.256Z,99320.97
2023-04-27T05:26:24.088Z,99323.16
2023-04-27T05:28:52.220Z,99323.97
2023-04-27T05:31:19.799Z,99330.13
2023-04-27T05:33:47.568Z,99325.16
2023-04-27T05:36:15.731Z,99329.13
2023-04-27T05:38:43.518Z,99325.44
2023-04-27T05:41:13.728Z,99327.75
2023-04-27T05:43:41.450Z,99320.16
2023-04-27T05:46:09.538Z,99338.16
2023-04-27T05:48:39.646Z,99333.53
2023-04-27T05:51:07.397Z,99338.16
2023-04-27T05:53:35.921Z,99340.16
2023-04-27T05:56:07.129Z,99337.59
2023-04-27T05:58:35.138Z,99336.50
2023-04-27T06:01:04.974Z,99347.13
2023-04-27T06:03:35.296Z,99350.81
2023-04-27T06:06:05.730Z,99342.81
2023-04-27T06:08:37.723Z,99349.78
2023-04-27T06:11:08.301Z,99359.69
2023-04-27T06:13:42.248Z,99353.69
2023-04-27T06:16:12.284Z,99347.00
2023-04-27T06:18:42.326Z,99352.22
2023-04-27T06:21:10.157Z,99345.97
2023-04-27T06:23:37.822Z,99347.09
2023-04-27T06:26:05.730Z,99350.13
2023-04-27T06:28:34.108Z,99352.66
2023-04-27T06:31:01.792Z,99351.25
2023-04-27T06:33:29.525Z,99353.81
2023-04-27T06:35:57.247Z,99361.38
2023-04-27T06:38:25.031Z,99357.16
2023-04-27T06:40:53.310Z,99364.31
2023-04-27T06:43:21.228Z,99356.06
2023-04-27T06:45:55.041Z,99354.28
2023-04-27T06:48:22.801Z,99348.47
2023-04-27T06:50:50.951Z,99356.81
2023-04-27T06:53:19.495Z,99361.09
2023-04-27T06:55:48.639Z,99369.00
2023-04-27T06:58:16.530Z,99363.19
2023-04-27T07:00:44.032Z,99361.00
2023-04-27T07:03:11.834Z,99363.06
2023-04-27T07:05:39.525Z,99374.97
2023-04-27T07:08:09.645Z,99371.84
2023-04-27T07:10:37.528Z,99372.34
2023-04-27T07:13:09.314Z,99380.25
2023-04-27T07:15:37.565Z,99380.59
2023-04-27T07:18:05.578Z,99377.59
2023-04-27T07:20:35.590Z,99378.50
2023-04-27T07:23:08.448Z,99369.66
2023-04-27T07:25:36.018Z,99376.44
2023-04-27T07:28:04.401Z,99377.78
2023-04-27T07:30:34.557Z,99378.47
2023-04-27T07:33:03.640Z,99372.97
2023-04-27T07:35:32.120Z,99379.78
2023-04-27T07:38:04.331Z,99373.22
2023-04-27T07:40:32.986Z,99377.78
2023-04-27T07:43:01.129Z,99373.25
2023-04-27T07:45:32.583Z,99378.22
2023-04-27T07:48:05.140Z,99378.03
2023-04-27T07:50:37.212Z,99374.59
2023-04-27T07:53:08.245Z,99382.91
2023-04-27T07:55:38.221Z,99379.31
2023-04-27T07:58:19.917Z,99381.75
2023-04-27T08:00:48.123Z,99384.94
2023-04-27T08:03:18.615Z,99386.69
2023-04-27T08:06:07.582Z,99385.34
2023-04-27T08:08:55.182Z,99400.41
2023-04-27T08:12:19.316Z,99396.63
2023-04-27T08:14:47.677Z,99400.78
2023-04-27T08:17:22.245Z,99396.03
2023-04-27T08:19:52.221Z,99391.75
2023-04-27T08:22:33.084Z,99386.81
2023-04-27T08:25:01.104Z,99386.34
2023-04-27T08:27:28.828Z,99387.59
2023-04-27T08:29:56.587Z,99395.31
2023-04-27T08:32:24.178Z,99389.16
2023-04-27T08:34:51.700Z,99395.19
2023-04-27T08:37:19.159Z,99392.31
2023-04-27T08:39:49.228Z,99380.72
2023-04-27T08:42:16.983Z,99381.38
2023-04-27T08:44:47.781Z,99379.31
2023-04-27T08:47:15.364Z,99381.41
2023-04-27T08:49:43.728Z,99386.94
2023-04-27T08:52:14.096Z,99377.16
2023-04-27T08:54:41.630Z,99375.00
2023-04-27T08:57:12.720Z,99377.66
2023-04-27T08:59:46.788Z,99376.25
2023-04-27T09:02:23.780Z,99370.44
2023-04-27T09:04:51.703Z,99367.69
2023-04-27T09:07:19.412Z,99367.13
2023-04-27T09:09:48.461Z,99371.34
2023-04-27T09:12:20.366Z,99374.84
2023-04-27T09:15:06.279Z,99368.31
2023-04-27T09:17:33.996Z,99367.06
2023-04-27T09:20:10.311Z,99366.06
2023-04-27T09:22:48.507Z,99367.47
2023-04-27T09:25:30.640Z,99365.47
2023-04-27T09:28:00.542Z,99367.19
2023-04-27T09:30:30.150Z,99368.81
2023-04-27T09:33:02.047Z,99364.47
2023-04-27T09:35:32.539Z,99365.81
2023-04-27T09:38:01.630Z,99363.69
2023-04-27T09:40:31.911Z,99361.38
2023-04-27T09:43:03.963Z,99351.97
2023-04-27T09:45:33.872Z,99351.03
2023-04-27T09:48:02.795Z,99352.25
2023-04-27T09:50:37.399Z,99350.25
2023-04-27T09:53:18.159Z,99352.97
2023-04-27T09:56:06.820Z,99351.09
2023-04-27T09:59:24.034Z,99344.22
2023-04-27T10:01:56.076Z,99349.75
2023-04-27T10:04:29.462Z,99350.06
2023-04-27T10:07:09.269Z,99338.66
2023-04-27T10:09:45.430Z,99345.38
2023-04-27T10:12:21.485Z,99342.16
2023-04-27T10:15:13.921Z,99342.97
2023-04-27T10:17:50.318Z,99341.09
2023-04-27T10:20:18.258Z,99337.72
2023-04-27T10:22:46.926Z,99343.88
2023-04-27T10:25:22.275Z,99330.22
2023-04-27T10:28:01.530Z,99331.59
2023-04-27T10:30:38.744Z,99341.19
2023-04-27T10:33:09.413Z,99335.63
2023-04-27T10:35:43.120Z,99341.56
2023-04-27T10:38:23.523Z,99336.69
2023-04-27T10:41:07.527Z,99340.72
2023-04-27T10:43:36.549Z,99337.75
2023-04-27T10:46:16.724Z,99338.81
2023-04-27T10:48:46.045Z,99333.84
2023-04-27T10:51:18.598Z,99334.25
2023-04-27T10:53:52.099Z,99335.88
2023-04-27T10:56:19.816Z,99340.94
2023-04-27T10:58:49.207Z,99346.56
2023-04-27T11:01:29.907Z,99335.28
2023-04-27T11:03:59.068Z,99335.41
2023-04-27T11:06:30.862Z,99330.50
2023-04-27T11:08:59.349Z,99336.63
2023-04-27T11:11:26.891Z,99332.78
2023-04-27T11:13:58.247Z,99338.72
2023-04-27T11:16:25.988Z,99332.50
2023-04-27T11:18:54.874Z,99335.06
2023-04-27T11:21:23.604Z,99332.50
2023-04-27T11:23:52.129Z,99336.81
2023-04-27T11:26:22.533Z,99332.75
2023-04-27T11:29:05.541Z,99331.25
2023-04-27T11:31:49.314Z,99336.41
2023-04-27T11:34:19.466Z,99337.66
2023-04-27T11:37:24.301Z,99341.66
2023-04-27T11:39:54.890Z,99346.84
2023-04-27T11:42:25.804Z,99345.09
2023-04-27T11:44:56.863Z,99343.81
2023-04-27T11:47:27.794Z,99347.63
2023-04-27T11:49:58.886Z,99348.56
2023-04-27T11:52:33.688Z,99359.47
2023-04-27T11:55:05.991Z,99356.53
2023-04-27T11:57:36.083Z,99362.25
2023-04-27T12:00:11.275Z,99359.03
2023-04-27T12:02:44.647Z,99358.94
2023-04-27T12:05:13.945Z,99360.56
2023-04-27T12:07:45.829Z,99363.84
2023-04-27T12:10:13.516Z,99360.16
2023-04-27T12:12:41.696Z,99356.47
2023-04-27T12:15:10.105Z,99365.44
2023-04-27T12:17:38.547Z,99359.31
2023-04-27T12:20:07.213Z,99365.13
2023-04-27T12:22:34.768Z,99358.16
2023-04-27T12:25:02.338Z,99361.94
2023-04-27T12:27:29.828Z,99362.38
2023-04-27T12:29:59.479Z,99362.41
2023-04-27T12:32:28.091Z,99358.88
2023-04-27T12:34:55.625Z,99368.03
2023-04-27T12:37:25.404Z,99362.97
2023-04-27T12:39:55.017Z,99365.53
2023-04-27T12:42:24.327Z,99362.00
2023-04-27T12:44:52.651Z,99360.06
2023-04-27T12:49:54.359Z,99361.56
2023-04-27T12:52:21.837Z,99364.84
2023-04-27T12:54:49.391Z,99367.78
2023-04-27T12:57:16.860Z,99370.97
2023-04-27T12:59:44.959Z,99366.66
2023-04-27T13:02:13.125Z,99372.47
2023-04-27T13:04:41.554Z,99364.31
2023-04-27T13:07:09.032Z,99374.34
2023-04-27T13:09:36.527Z,99374.00
2023-04-27T13:12:04.384Z,99371.06
2023-04-27T13:14:33.433Z,99371.59
2023-04-27T13:17:02.162Z,99382.22
2023-04-27T13:19:29.594Z,99378.34
2023-04-27T13:21:57.119Z,99384.34
2023-04-27T13:24:25.052Z,99376.03
2023-04-27T13:26:52.728Z,99377.38
2023-04-27T13:29:20.169Z,99371.66
2023-04-27T13:31:47.742Z,99381.56
2023-04-27T13:34:15.462Z,99375.44
2023-04-27T13:36:43.314Z,99374.28
2023-04-27T13:39:10.802Z,99376.59
2023-04-27T13:41:38.308Z,99377.28
2023-04-27T13:44:06.193Z,99378.97
2023-04-27T13:46:33.753Z,99378.28
2023-04-27T13:49:01.317Z,99377.81
2023-04-27T13:51:30.189Z,99377.13
2023-04-27T13:53:57.863Z,99377.28
2023-04-27T13:56:25.404Z,99371.34
2023-04-27T13:58:54.192Z,99376.78
2023-04-27T14:01:22.923Z,99379.44
2023-04-27T14:03:50.518Z,99380.91
2023-04-27T14:06:18.144Z,99376.66
2023-04-27T14:08:45.926Z,99383.06
2023-04-27T14:11:14.116Z,99372.81
2023-04-27T14:13:41.585Z,99383.09
2023-04-27T14:16:09.296Z,99384.19
2023-04-27T14:18:36.990Z,99386.53
2023-04-27T14:21:05.363Z,99380.28
2023-04-27T14:23:32.953Z,99385.81
2023-04-27T14:26:00.534Z,99386.00
2023-04-27T14:28:28.198Z,99388.66
2023-04-27T14:30:56.226Z,99387.16
2023-04-27T14:33:23.901Z,99397.66
2023-04-27T14:35:51.886Z,99390.06
2023-04-27T14:38:19.412Z,99388.41
2023-04-27T14:40:47.014Z,99388.75
2023-04-27T14:43:14.593Z,99385.25
2023-04-27T14:45:51.567Z,99386.41
2023-04-27T14:48:21.640Z,99388.16
2023-04-27T14:50:49.179Z,99387.19
2023-04-27T14:53:19.819Z,99398.34
2023-04-27T14:55:48.899Z,99394.41
2023-04-27T14:58:16.358Z,99389.09
2023-04-27T15:00:45.480Z,99385.56
2023-04-27T15:03:13.093Z,99383.06
2023-04-27T15:05:40.881Z,99379.25
2023-04-27T15:08:08.346Z,99389.84
2023-04-27T15:10:36.208Z,99390.66
2023-04-27T15:13:03.980Z,99385.91
2023-04-27T15:15:31.577Z,99379.38
2023-04-27T15:17:59.732Z,99391.56
2023-04-27T15:20:27.362Z,99388.56
2023-04-27T15:22:55.150Z,99388.91
2023-04-27T15:25:23.289Z,99396.53
2023-04-27T15:27:51.288Z,99396.53
2023-04-27T15:30:18.726Z,99398.03
2023-04-27T15:32:46.529Z,99396.75
2023-04-27T15:35:14.146Z,99405.25
2023-04-27T15:37:41.719Z,99403.84
2023-04-27T15:40:10.431Z,99407.56
2023-04-27T15:42:37.941Z,99406.16
2023-04-27T15:45:08.650Z,99404.66
2023-04-27T15:47:37.352Z,99410.59
2023-04-27T15:50:06.711Z,99412.53
2023-04-27T15:52:34.368Z,99414.69
2023-04-27T15:55:04.296Z,99422.19
2023-04-27T15:57:31.777Z,99416.69
2023-04-27T15:59:59.313Z,99425.19
2023-04-27T16:02:27.459Z,99419.53
2023-04-27T16:04:59.094Z,99426.66
2023-04-27T16:07:26.738Z,99432.09
2023-04-27T16:09:54.353Z,99433.84
2023-04-27T16:12:21.788Z,99431.75
2023-04-27T16:14:51.863Z,99435.94
2023-04-27T16:17:19.681Z,99441.97
2023-04-27T16:19:47.202Z,99451.13
2023-04-27T16:22:14.751Z,99452.94
2023-04-27T16:24:42.236Z,99448.59
2023-04-27T16:27:10.539Z,99464.47
2023-04-27T16:29:39.098Z,99459.84
2023-04-27T16:32:07.177Z,99463.47
2023-04-27T16:34:34.943Z,99465.34
2023-04-27T16:37:02.725Z,99465.06
2023-04-27T16:39:30.391Z,99472.06
2023-04-27T16:41:58.168Z,99467.75
2023-04-27T16:44:26.224Z,99475.44
2023-04-27T16:46:53.760Z,99471.72
2023-04-27T16:49:21.623Z,99474.81
2023-04-27T16:51:49.274Z,99478.47
2023-04-27T16:54:16.756Z,99477.53
2023-04-27T16:56:45.876Z,99491.63
2023-04-27T16:59:13.618Z,99492.00
2023-04-27T17:01:41.466Z,99496.19
2023-04-27T17:04:10.352Z,99491.72
2023-04-27T17:06:38.401Z,99494.97
2023-04-27T17:09:06.887Z,99496.97
2023-04-27T17:11:34.692Z,99504.97
2023-04-27T17:14:05.239Z,99497.81
2023-04-27T17:16:33.275Z,99501.94
2023-04-27T17:19:00.827Z,99502.72
2023-04-27T17:21:31.521Z,99507.00
2023-04-27T17:23:59.580Z,99508.00
2023-04-27T17:26:28.664Z,99507.91
2023-04-27T17:29:00.070Z,99511.31
2023-04-27T17:31:28.023Z,99512.06
2023-04-27T17:33:55.728Z,99519.22
2023-04-27T17:36:23.231Z,99511.63
2023-04-27T17:38:52.184Z,99517.13
2023-04-27T17:41:21.790Z,99522.09
2023-04-27T17:43:50.315Z,99516.16
2023-04-27T17:46:18.010Z,99518.09
2023-04-27T17:48:46.021Z,99524.72
2023-04-27T17:51:13.803Z,99526.50
2023-04-27T17:53:42.079Z,99529.44
2023-04-27T17:56:11.087Z,99536.81
2023-04-27T17:58:38.796Z,99542.72
2023-04-27T18:01:13.551Z,99553.19
2023-04-27T18:03:42.358Z,99549.66
2023-04-27T18:06:10.868Z,99557.44
2023-04-27T18:08:38.544Z,99557.84
2023-04-27T18:11:07.056Z,99564.22
2023-04-27T18:13:34.785Z,99567.06
2023-04-27T18:16:02.424Z,99564.00
2023-04-27T18:18:31.796Z,99569.50
2023-04-27T18:20:59.486Z,99573.66
2023-04-27T18:23:30.869Z,99570.00
2023-04-27T18:26:02.979Z,99583.50
2023-04-27T18:28:30.785Z,99590.56
2023-04-27T18:30:59.016Z,99589.69
2023-04-27T18:33:27.073Z,99594.88
2023-04-27T18:35:56.430Z,99589.38
2023-04-27T18:38:24.096Z,99597.91
2023-04-27T18:40:53.095Z,99597.91
2023-04-27T18:43:20.785Z,99594.50
2023-04-27T18:45:49.046Z,99599.19
2023-04-27T18:48:18.656Z,99607.16
2023-04-27T18:50:47.006Z,99603.16
2023-04-27T18:53:15.917Z,99605.22
2023-04-27T18:55:43.529Z,99612.06
2023-04-27T18:58:11.329Z,99613.78
2023-04-27T19:00:42.459Z,99617.03
2023-04-27T19:03:10.540Z,99629.19
2023-04-27T19:05:43.753Z,99624.63
2023-04-27T19:08:11.776Z,99633.63
2023-04-27T19:10:43.684Z,99629.66
2023-04-27T19:13:13.046Z,99637.63
2023-04-27T19:15:42.340Z,99637.50
2023-04-27T19:18:12.255Z,99642.09
2023-04-27T19:20:43.465Z,99647.53
2023-04-27T19:23:14.514Z,99653.44
2023-04-27T19:25:42.745Z,99649.44
2023-04-27T19:28:10.562Z,99656.69
2023-04-27T19:30:38.169Z,99662.13
2023-04-27T19:33:07.541Z,99662.53
2023-04-27T19:35:37.411Z,99663.53
2023-04-27T19:38:07.710Z,99658.66
2023-04-27T19:40:38.400Z,99661.06
2023-04-27T19:43:09.883Z,99664.44
2023-04-27T19:45:42.238Z,99658.09
2023-04-27T19:48:11.649Z,99660.09
2023-04-27T19:50:45.707Z,99657.69
2023-04-27T19:53:23.193Z,99665.50
2023-04-27T19:55:52.732Z,99664.75
2023-04-27T19:58:22.490Z,99666.50
2023-04-27T20:00:51.072Z,99671.31
2023-04-27T20:03:22.572Z,99665.09
2023-04-27T20:08:38.810Z,99669.16
2023-04-27T20:11:08.253Z,99674.03
2023-04-27T20:13:37.559Z,99676.63
2023-04-27T20:16:09.861Z,99672.78
2023-04-27T20:18:40.846Z,99671.59
2023-04-27T20:21:08.584Z,99664.53
2023-04-27T20:24:02.109Z,99670.56
2023-04-27T20:26:30.797Z,99675.06
2023-04-27T20:28:59.505Z,99673.66
2023-04-27T20:31:29.608Z,99674.28
2023-04-27T20:33:57.258Z,99668.06
2023-04-27T20:36:24.883Z,99675.91
2023-04-27T20:38:53.244Z,99676.13
2023-04-27T20:41:22.402Z,99683.34
2023-04-27T20:44:11.949Z,99675.09
2023-04-27T20:46:39.695Z,99690.38
2023-04-27T20:49:07.727Z,99691.38
2023-04-27T20:51:37.314Z,99689.03
2023-04-27T20:54:05.221Z,99683.00
2023-04-27T20:56:35.706Z,99680.09
2023-04-27T20:59:03.324Z,99683.50
2023-04-27T21:01:31.100Z,99690.59
2023-04-27T21:03:59.018Z,99687.19
2023-04-27T21:06:26.820Z,99691.69
2023-04-27T21:08:54.444Z,99694.91
2023-04-27T21:11:22.234Z,99698.50
2023-04-27T21:13:50.920Z,99689.34
2023-04-27T21:16:18.555Z,99695.66
2023-04-27T21:18:47.331Z,99699.34
2023-04-27T21:21:15.093Z,99702.44
2023-04-27T21:23:42.725Z,99699.97
2023-04-27T21:26:10.947Z,99704.38
2023-04-27T21:28:38.587Z,99704.53
2023-04-27T21:31:06.710Z,99707.94
2023-04-27T21:33:34.354Z,99700.34
2023-04-27T21:36:03.902Z,99701.31
2023-04-27T21:38:31.615Z,99710.69
2023-04-27T21:41:00.067Z,99706.81
2023-04-27T21:43:27.681Z,99707.16
2023-04-27T21:45:55.362Z,99715.81
2023-04-27T21:48:23.520Z,99721.06
2023-04-27T21:50:51.430Z,99716.16
2023-04-27T21:53:19.013Z,99724.78
2023-04-27T21:55:46.830Z,99717.34
2023-04-27T21:58:14.558Z,99726.94
2023-04-27T22:00:42.263Z,99724.94
2023-04-27T22:03:10.173Z,99726.16
2023-04-27T22:05:37.915Z,99730.38
2023-04-27T22:08:07.920Z,99727.59
2023-04-27T22:10:36.519Z,99731.44
2023-04-27T22:13:17.808Z,99732.31
2023-04-27T22:15:47.284Z,99724.44
2023-04-27T22:18:16.070Z,99737.00
2023-04-27T22:20:44.263Z,99736.34
2023-04-27T22:23:12.147Z,99740.38
2023-04-27T22:25:42.766Z,99733.16
2023-04-27T22:28:11.323Z,99735.78
2023-04-27T22:30:40.361Z,99728.47
2023-04-27T22:33:08.543Z,99737.78
2023-04-27T22:35:37.016Z,99734.84
2023-04-27T22:38:04.611Z,99741.19
2023-04-27T22:40:32.259Z,99740.09
2023-04-27T22:42:59.754Z,99738.38
2023-04-27T22:45:27.285Z,99743.00
2023-04-27T22:47:54.888Z,99734.06
2023-04-27T22:50:22.389Z,99729.44
2023-04-27T22:52:53.095Z,99734.06
2023-04-27T22:55:22.493Z,99736.84
2023-04-27T22:57:50.228Z,99738.53
2023-04-27T23:00:17.947Z,99733.91
2023-04-27T23:02:45.810Z,99735.75
2023-04-27T23:05:13.635Z,99733.88
2023-04-27T23:07:42.975Z,99730.94
2023-04-27T23:10:11.237Z,99733.69
2023-04-27T23:12:38.924Z,99737.44
2023-04-27T23:15:07.001Z,99731.84
2023-04-27T23:17:36.452Z,99741.47
2023-04-27T23:20:26.692Z,99734.63
2023-04-27T23:22:55.616Z,99732.91
2023-04-27T23:25:23.244Z,99739.75
2023-04-27T23:27:52.467Z,99743.75
2023-04-27T23:30:22.094Z,99739.81
2023-04-27T23:33:09.754Z,99741.84
2023-04-27T23:35:37.177Z,99740.16
2023-04-27T23:38:04.676Z,99738.56
2023-04-27T23:40:32.161Z,99736.44
2023-04-27T23:42:59.614Z,99742.63
2023-04-27T23:45:27.160Z,99732.81
2023-04-27T23:47:54.595Z,99736.56
2023-04-27T23:50:22.083Z,99738.47
2023-04-27T23:52:49.702Z,99740.56
2023-04-27T23:55:17.363Z,99732.03
2023-04-27T23:57:44.971Z,99739.72
